MD83 Caspian Airlines wypadł z pasa w Mahshahr

Wypadek MD-83 w Iranie, fot. avherald

27 stycznia, MD-83 należący do Caspian Airlines (znaki rejestracyjne EP-CPZ), wykonywał lot IV-6936 z Teheranu Mehrabad do Mahshahr (Iran) z 144 osobami na pokładzie.

Samolot wylądował na pasie startowym 13 lotniska docelowego ok. 04:20 UTC, ale nie zdołał się zatrzymać przed jego końcem, przejechał przez ogrodzenie lotniska i z wyłamanym podwoziem zatrzymał się na drodze około 170 m za końcem pasa startowego.

Pasażerowie zostali natychmiast ewakuowani z pokładu i do akcji przystąpiły służby ratunkowe. W zdarzeniu nikt nie odniósł obrażeń, jednakże szacowane szkody są znaczne.

Metar-y:
OIAM 270600Z 30008KT 7000 NSC 08/06 Q1023 =
OIAM 270500Z 29006KT 7000 NSC 07/05 Q1023 =
OIAM 270400Z 28006KT CAVOK 06/04 Q1023 =

OIAM 270300Z 29008KT 8000 NSC 06/04 Q1022 =
OIAM 270200Z 29004KT CAVOK 06/04 Q1022 =
OIAM 270100Z 00000KT CAVOK 06/04 Q1022 =
OIAM 270000Z 00000KT CAVOK 07/01 Q1022 =

Więcej informacji na temat tego zdarzenia dostępnych jest na stronie www.avherald.com

Źródło: avherald
comments powered by Disqus